Zuni Pueblo, New Mexico
Current Conditions -  °F | °C
As of 1:53 PM on Thursday 18 Dec 2014 (Local Time) from KGUP Reporting Station
Broken Clouds Broken Clouds  
Wind Chill: 32°   Ceiling: 7500
Heat Index: 36°   Visibility: 10mi
Dew Point: 27°   Wind: 5mph
Humidity: 70%   Direction: 250°WSW
Pressure: 30.09"   Gusts: NA
Location:  35.0898°N, 108.763°W
Report Text: KGUP 182053Z AUTO 25004KT 10SM BKN075 BKN090 02/M03 A3009 RMK AO2 SLP192 T00221028 56017
Loading
Personal Weather Stations






























Interactive Weather Map New forecast layout! Learn more

10-Day Weather Forecast

Advertisements
Track Severe Weather on mobile